sensor_id;sensor_type;location;lat;lon;timestamp;temperature;humidity
19050;DHT22;9657;45.940;12.840;2022-11-25T00:01:25;13.30;70.40
19050;DHT22;9657;45.940;12.840;2022-11-25T00:03:54;13.30;70.40
19050;DHT22;9657;45.940;12.840;2022-11-25T00:06:24;13.30;70.40
19050;DHT22;9657;45.940;12.840;2022-11-25T00:08:54;13.30;70.40
19050;DHT22;9657;45.940;12.840;2022-11-25T00:11:22;13.30;70.30
19050;DHT22;9657;45.940;12.840;2022-11-25T00:13:49;13.30;70.30
19050;DHT22;9657;45.940;12.840;2022-11-25T00:16:18;13.30;70.30
19050;DHT22;9657;45.940;12.840;2022-11-25T00:18:47;13.30;70.30
19050;DHT22;9657;45.940;12.840;2022-11-25T00:21:15;13.30;70.40
19050;DHT22;9657;45.940;12.840;2022-11-25T00:23:49;13.30;70.30
19050;DHT22;9657;45.940;12.840;2022-11-25T00:26:16;13.30;70.30
19050;DHT22;9657;45.940;12.840;2022-11-25T00:28:45;13.40;70.30
19050;DHT22;9657;45.940;12.840;2022-11-25T00:31:14;13.30;70.30
19050;DHT22;9657;45.940;12.840;2022-11-25T00:33:41;13.30;70.30
19050;DHT22;9657;45.940;12.840;2022-11-25T00:36:19;13.30;70.30
19050;DHT22;9657;45.940;12.840;2022-11-25T00:38:51;13.30;70.20
19050;DHT22;9657;45.940;12.840;2022-11-25T00:41:19;13.30;70.20
19050;DHT22;9657;45.940;12.840;2022-11-25T00:44:03;13.30;70.30
19050;DHT22;9657;45.940;12.840;2022-11-25T00:46:48;13.30;70.20
19050;DHT22;9657;45.940;12.840;2022-11-25T00:49:15;13.30;70.20
19050;DHT22;9657;45.940;12.840;2022-11-25T00:51:42;13.30;70.10
19050;DHT22;9657;45.940;12.840;2022-11-25T00:54:11;13.30;70.10
19050;DHT22;9657;45.940;12.840;2022-11-25T00:56:38;13.30;70.10
19050;DHT22;9657;45.940;12.840;2022-11-25T00:59:06;13.30;70.20
19050;DHT22;9657;45.940;12.840;2022-11-25T01:01:33;13.30;70.10
19050;DHT22;9657;45.940;12.840;2022-11-25T01:04:00;13.30;70.10
19050;DHT22;9657;45.940;12.840;2022-11-25T01:06:27;13.30;70.10
19050;DHT22;9657;45.940;12.840;2022-11-25T01:08:54;13.30;70.00
19050;DHT22;9657;45.940;12.840;2022-11-25T01:11:23;13.30;70.10
19050;DHT22;9657;45.940;12.840;2022-11-25T01:13:50;13.30;70.10
19050;DHT22;9657;45.940;12.840;2022-11-25T01:16:20;13.30;70.10
19050;DHT22;9657;45.940;12.840;2022-11-25T01:18:47;13.30;70.10
19050;DHT22;9657;45.940;12.840;2022-11-25T01:21:16;13.30;70.10
19050;DHT22;9657;45.940;12.840;2022-11-25T01:23:44;13.30;70.10
19050;DHT22;9657;45.940;12.840;2022-11-25T01:26:13;13.30;70.00
19050;DHT22;9657;45.940;12.840;2022-11-25T01:28:41;13.30;70.00
19050;DHT22;9657;45.940;12.840;2022-11-25T01:31:10;13.30;70.00
19050;DHT22;9657;45.940;12.840;2022-11-25T01:33:39;13.30;70.00
19050;DHT22;9657;45.940;12.840;2022-11-25T01:36:08;13.30;70.00
19050;DHT22;9657;45.940;12.840;2022-11-25T01:38:37;13.30;70.00
19050;DHT22;9657;45.940;12.840;2022-11-25T01:41:05;13.30;70.00
19050;DHT22;9657;45.940;12.840;2022-11-25T01:43:33;13.30;70.00
19050;DHT22;9657;45.940;12.840;2022-11-25T01:46:06;13.30;70.00
19050;DHT22;9657;45.940;12.840;2022-11-25T01:48:38;13.30;70.00
19050;DHT22;9657;45.940;12.840;2022-11-25T01:51:15;13.30;70.00
19050;DHT22;9657;45.940;12.840;2022-11-25T01:53:44;13.30;70.00
19050;DHT22;9657;45.940;12.840;2022-11-25T01:56:12;13.30;70.00
19050;DHT22;9657;45.940;12.840;2022-11-25T01:58:40;13.30;70.00
19050;DHT22;9657;45.940;12.840;2022-11-25T02:04:10;13.30;70.80
19050;DHT22;9657;45.940;12.840;2022-11-25T02:06:43;13.30;70.00
19050;DHT22;9657;45.940;12.840;2022-11-25T02:09:11;13.30;69.90
19050;DHT22;9657;45.940;12.840;2022-11-25T02:11:42;13.30;69.90
19050;DHT22;9657;45.940;12.840;2022-11-25T02:14:11;13.30;69.90
19050;DHT22;9657;45.940;12.840;2022-11-25T02:16:39;13.30;69.90
19050;DHT22;9657;45.940;12.840;2022-11-25T02:19:16;13.30;70.00
19050;DHT22;9657;45.940;12.840;2022-11-25T02:21:50;13.30;69.90
19050;DHT22;9657;45.940;12.840;2022-11-25T02:24:24;13.30;69.90
19050;DHT22;9657;45.940;12.840;2022-11-25T02:26:55;13.30;69.90
19050;DHT22;9657;45.940;12.840;2022-11-25T02:29:22;13.20;69.80
19050;DHT22;9657;45.940;12.840;2022-11-25T02:31:50;13.30;69.90
19050;DHT22;9657;45.940;12.840;2022-11-25T02:34:17;13.30;69.90
19050;DHT22;9657;45.940;12.840;2022-11-25T02:36:44;13.30;69.80
19050;DHT22;9657;45.940;12.840;2022-11-25T02:39:11;13.30;69.90
19050;DHT22;9657;45.940;12.840;2022-11-25T02:41:42;13.30;69.80
19050;DHT22;9657;45.940;12.840;2022-11-25T02:44:11;13.30;69.80
19050;DHT22;9657;45.940;12.840;2022-11-25T02:46:39;13.30;69.80
19050;DHT22;9657;45.940;12.840;2022-11-25T02:49:06;13.30;69.70
19050;DHT22;9657;45.940;12.840;2022-11-25T02:51:33;13.30;69.80
19050;DHT22;9657;45.940;12.840;2022-11-25T02:54:01;13.20;69.70
19050;DHT22;9657;45.940;12.840;2022-11-25T02:56:30;13.30;69.80
19050;DHT22;9657;45.940;12.840;2022-11-25T02:58:58;13.30;69.80
19050;DHT22;9657;45.940;12.840;2022-11-25T03:01:27;13.30;69.80
19050;DHT22;9657;45.940;12.840;2022-11-25T03:03:55;13.20;69.70
19050;DHT22;9657;45.940;12.840;2022-11-25T03:06:23;13.30;69.80
19050;DHT22;9657;45.940;12.840;2022-11-25T03:08:50;13.20;69.60
19050;DHT22;9657;45.940;12.840;2022-11-25T03:11:17;13.20;69.70
19050;DHT22;9657;45.940;12.840;2022-11-25T03:13:44;13.20;69.60
19050;DHT22;9657;45.940;12.840;2022-11-25T03:16:11;13.20;69.70
19050;DHT22;9657;45.940;12.840;2022-11-25T03:18:39;13.20;70.40
19050;DHT22;9657;45.940;12.840;2022-11-25T03:21:06;13.20;69.60
19050;DHT22;9657;45.940;12.840;2022-11-25T03:23:33;13.20;69.60
19050;DHT22;9657;45.940;12.840;2022-11-25T03:26:04;13.20;69.60
19050;DHT22;9657;45.940;12.840;2022-11-25T03:28:31;13.20;69.60
19050;DHT22;9657;45.940;12.840;2022-11-25T03:30:58;13.20;69.60
19050;DHT22;9657;45.940;12.840;2022-11-25T03:33:25;13.20;69.60
19050;DHT22;9657;45.940;12.840;2022-11-25T03:35:54;13.20;69.60
19050;DHT22;9657;45.940;12.840;2022-11-25T03:38:21;13.20;69.60
19050;DHT22;9657;45.940;12.840;2022-11-25T03:40:48;13.20;69.50
19050;DHT22;9657;45.940;12.840;2022-11-25T03:43:15;13.20;69.50
19050;DHT22;9657;45.940;12.840;2022-11-25T03:45:42;13.20;69.50
19050;DHT22;9657;45.940;12.840;2022-11-25T03:48:09;13.20;69.50
19050;DHT22;9657;45.940;12.840;2022-11-25T03:50:36;13.20;69.50
19050;DHT22;9657;45.940;12.840;2022-11-25T03:53:04;13.20;69.50
19050;DHT22;9657;45.940;12.840;2022-11-25T03:55:31;13.20;69.50
19050;DHT22;9657;45.940;12.840;2022-11-25T03:57:58;13.20;69.50
19050;DHT22;9657;45.940;12.840;2022-11-25T04:00:26;13.20;69.50
19050;DHT22;9657;45.940;12.840;2022-11-25T04:02:53;13.20;69.50
19050;DHT22;9657;45.940;12.840;2022-11-25T04:05:20;13.20;69.40
19050;DHT22;9657;45.940;12.840;2022-11-25T04:07:47;13.20;70.30
19050;DHT22;9657;45.940;12.840;2022-11-25T04:10:15;13.20;69.50
19050;DHT22;9657;45.940;12.840;2022-11-25T04:12:42;13.20;69.50
19050;DHT22;9657;45.940;12.840;2022-11-25T04:15:11;13.20;69.40
19050;DHT22;9657;45.940;12.840;2022-11-25T04:17:39;13.20;69.40
19050;DHT22;9657;45.940;12.840;2022-11-25T04:20:06;13.20;69.40
19050;DHT22;9657;45.940;12.840;2022-11-25T04:22:34;13.20;69.40
19050;DHT22;9657;45.940;12.840;2022-11-25T04:25:01;13.20;69.40
19050;DHT22;9657;45.940;12.840;2022-11-25T04:27:29;13.20;69.40
19050;DHT22;9657;45.940;12.840;2022-11-25T04:29:56;13.20;69.40
19050;DHT22;9657;45.940;12.840;2022-11-25T04:32:23;13.20;69.40
19050;DHT22;9657;45.940;12.840;2022-11-25T04:34:51;13.20;69.40
19050;DHT22;9657;45.940;12.840;2022-11-25T04:37:18;13.20;69.40
19050;DHT22;9657;45.940;12.840;2022-11-25T04:39:45;13.20;69.40
19050;DHT22;9657;45.940;12.840;2022-11-25T04:42:12;13.20;69.40
19050;DHT22;9657;45.940;12.840;2022-11-25T04:44:54;13.20;69.40
19050;DHT22;9657;45.940;12.840;2022-11-25T04:47:22;13.20;69.40
19050;DHT22;9657;45.940;12.840;2022-11-25T04:49:49;13.20;69.40
19050;DHT22;9657;45.940;12.840;2022-11-25T04:52:16;13.20;69.40
19050;DHT22;9657;45.940;12.840;2022-11-25T04:54:43;13.20;69.40
19050;DHT22;9657;45.940;12.840;2022-11-25T04:57:12;13.20;70.30
19050;DHT22;9657;45.940;12.840;2022-11-25T04:59:39;13.20;69.40
19050;DHT22;9657;45.940;12.840;2022-11-25T05:02:12;13.20;69.40
19050;DHT22;9657;45.940;12.840;2022-11-25T05:04:39;13.20;69.40
19050;DHT22;9657;45.940;12.840;2022-11-25T05:07:07;13.20;69.40
19050;DHT22;9657;45.940;12.840;2022-11-25T05:09:34;13.20;69.40
19050;DHT22;9657;45.940;12.840;2022-11-25T05:12:02;13.20;69.40
19050;DHT22;9657;45.940;12.840;2022-11-25T05:14:29;13.20;69.40
19050;DHT22;9657;45.940;12.840;2022-11-25T05:16:56;13.20;69.30
19050;DHT22;9657;45.940;12.840;2022-11-25T05:19:24;13.20;69.40
19050;DHT22;9657;45.940;12.840;2022-11-25T05:21:51;13.20;69.40
19050;DHT22;9657;45.940;12.840;2022-11-25T05:24:18;13.20;69.40
19050;DHT22;9657;45.940;12.840;2022-11-25T05:26:46;13.20;69.40
19050;DHT22;9657;45.940;12.840;2022-11-25T05:29:13;13.20;69.40
19050;DHT22;9657;45.940;12.840;2022-11-25T05:31:40;13.20;69.40
19050;DHT22;9657;45.940;12.840;2022-11-25T05:34:07;13.10;69.20
19050;DHT22;9657;45.940;12.840;2022-11-25T05:36:35;13.10;69.20
19050;DHT22;9657;45.940;12.840;2022-11-25T05:39:03;13.10;69.20
19050;DHT22;9657;45.940;12.840;2022-11-25T05:41:30;13.10;69.30
19050;DHT22;9657;45.940;12.840;2022-11-25T05:43:57;13.10;69.30
19050;DHT22;9657;45.940;12.840;2022-11-25T05:46:24;13.10;69.20
19050;DHT22;9657;45.940;12.840;2022-11-25T05:48:54;13.10;69.20
19050;DHT22;9657;45.940;12.840;2022-11-25T05:51:22;13.10;69.20
19050;DHT22;9657;45.940;12.840;2022-11-25T05:53:51;13.20;69.30
19050;DHT22;9657;45.940;12.840;2022-11-25T05:56:18;13.10;69.20
19050;DHT22;9657;45.940;12.840;2022-11-25T05:58:45;13.10;69.20
19050;DHT22;9657;45.940;12.840;2022-11-25T06:01:14;13.10;69.20
19050;DHT22;9657;45.940;12.840;2022-11-25T06:03:41;13.10;69.20
19050;DHT22;9657;45.940;12.840;2022-11-25T06:06:09;13.10;69.20
19050;DHT22;9657;45.940;12.840;2022-11-25T06:08:38;13.10;69.20
19050;DHT22;9657;45.940;12.840;2022-11-25T06:11:08;13.10;69.20
19050;DHT22;9657;45.940;12.840;2022-11-25T06:13:36;13.10;69.20
19050;DHT22;9657;45.940;12.840;2022-11-25T06:16:07;13.10;69.20
19050;DHT22;9657;45.940;12.840;2022-11-25T06:18:35;13.10;69.20
19050;DHT22;9657;45.940;12.840;2022-11-25T06:21:04;13.10;69.20
19050;DHT22;9657;45.940;12.840;2022-11-25T06:23:31;13.10;69.20
19050;DHT22;9657;45.940;12.840;2022-11-25T06:26:03;13.10;69.10
19050;DHT22;9657;45.940;12.840;2022-11-25T06:28:31;13.10;69.20
19050;DHT22;9657;45.940;12.840;2022-11-25T06:31:04;13.10;69.20
19050;DHT22;9657;45.940;12.840;2022-11-25T06:33:31;13.10;69.20
19050;DHT22;9657;45.940;12.840;2022-11-25T06:36:00;13.10;69.20
19050;DHT22;9657;45.940;12.840;2022-11-25T06:38:28;13.10;69.20
19050;DHT22;9657;45.940;12.840;2022-11-25T06:40:58;13.10;69.20
19050;DHT22;9657;45.940;12.840;2022-11-25T06:43:25;13.10;69.10
19050;DHT22;9657;45.940;12.840;2022-11-25T06:45:54;13.10;69.10
19050;DHT22;9657;45.940;12.840;2022-11-25T06:48:21;13.10;69.10
19050;DHT22;9657;45.940;12.840;2022-11-25T06:50:55;13.10;69.20
19050;DHT22;9657;45.940;12.840;2022-11-25T06:53:22;13.10;69.10
19050;DHT22;9657;45.940;12.840;2022-11-25T06:56:00;13.10;69.10
19050;DHT22;9657;45.940;12.840;2022-11-25T06:58:27;13.10;69.20
19050;DHT22;9657;45.940;12.840;2022-11-25T07:01:01;13.10;69.10
19050;DHT22;9657;45.940;12.840;2022-11-25T07:03:29;13.10;69.10
19050;DHT22;9657;45.940;12.840;2022-11-25T07:05:56;13.10;69.20
19050;DHT22;9657;45.940;12.840;2022-11-25T07:08:24;13.10;69.10
19050;DHT22;9657;45.940;12.840;2022-11-25T07:10:51;13.10;69.10
19050;DHT22;9657;45.940;12.840;2022-11-25T07:13:19;13.10;69.10
19050;DHT22;9657;45.940;12.840;2022-11-25T07:15:46;13.10;69.10
19050;DHT22;9657;45.940;12.840;2022-11-25T07:18:14;13.10;69.10
19050;DHT22;9657;45.940;12.840;2022-11-25T07:20:41;13.10;69.10
19050;DHT22;9657;45.940;12.840;2022-11-25T07:23:08;13.10;69.20
19050;DHT22;9657;45.940;12.840;2022-11-25T07:25:35;13.10;69.30
19050;DHT22;9657;45.940;12.840;2022-11-25T07:28:03;13.10;69.30
19050;DHT22;9657;45.940;12.840;2022-11-25T07:30:30;13.10;69.40
19050;DHT22;9657;45.940;12.840;2022-11-25T07:32:57;13.10;69.40
19050;DHT22;9657;45.940;12.840;2022-11-25T07:35:25;13.10;69.40
19050;DHT22;9657;45.940;12.840;2022-11-25T07:37:52;13.10;69.50
19050;DHT22;9657;45.940;12.840;2022-11-25T07:40:19;13.10;69.60
19050;DHT22;9657;45.940;12.840;2022-11-25T07:42:46;13.10;69.60
19050;DHT22;9657;45.940;12.840;2022-11-25T07:45:13;13.10;69.60
19050;DHT22;9657;45.940;12.840;2022-11-25T07:47:40;13.10;69.60
19050;DHT22;9657;45.940;12.840;2022-11-25T07:50:08;13.10;69.70
19050;DHT22;9657;45.940;12.840;2022-11-25T07:52:38;13.10;69.60
19050;DHT22;9657;45.940;12.840;2022-11-25T07:55:07;13.10;69.70
19050;DHT22;9657;45.940;12.840;2022-11-25T07:57:34;13.10;69.70
19050;DHT22;9657;45.940;12.840;2022-11-25T08:00:02;13.10;69.70
19050;DHT22;9657;45.940;12.840;2022-11-25T08:02:29;13.10;69.70
19050;DHT22;9657;45.940;12.840;2022-11-25T08:04:56;13.10;69.70
19050;DHT22;9657;45.940;12.840;2022-11-25T08:07:23;13.10;69.70
19050;DHT22;9657;45.940;12.840;2022-11-25T08:09:52;13.10;69.80
19050;DHT22;9657;45.940;12.840;2022-11-25T08:12:19;13.10;69.80
19050;DHT22;9657;45.940;12.840;2022-11-25T08:14:46;13.10;69.80
19050;DHT22;9657;45.940;12.840;2022-11-25T08:17:13;13.10;69.70
19050;DHT22;9657;45.940;12.840;2022-11-25T08:19:40;13.10;69.80
19050;DHT22;9657;45.940;12.840;2022-11-25T08:22:07;13.10;69.80
19050;DHT22;9657;45.940;12.840;2022-11-25T08:24:34;13.10;69.80
19050;DHT22;9657;45.940;12.840;2022-11-25T08:27:02;13.10;69.80
19050;DHT22;9657;45.940;12.840;2022-11-25T08:29:29;13.10;69.70
19050;DHT22;9657;45.940;12.840;2022-11-25T08:31:57;13.10;69.70
19050;DHT22;9657;45.940;12.840;2022-11-25T08:34:24;13.10;69.70
19050;DHT22;9657;45.940;12.840;2022-11-25T08:36:51;13.10;69.80
19050;DHT22;9657;45.940;12.840;2022-11-25T08:39:19;13.10;69.70
19050;DHT22;9657;45.940;12.840;2022-11-25T08:41:46;13.10;69.70
19050;DHT22;9657;45.940;12.840;2022-11-25T08:44:15;13.10;69.70
19050;DHT22;9657;45.940;12.840;2022-11-25T08:46:42;13.10;69.80
19050;DHT22;9657;45.940;12.840;2022-11-25T08:49:10;13.10;69.70
19050;DHT22;9657;45.940;12.840;2022-11-25T08:51:37;13.10;69.70
19050;DHT22;9657;45.940;12.840;2022-11-25T08:54:06;13.10;69.70
19050;DHT22;9657;45.940;12.840;2022-11-25T08:56:33;13.10;69.80
19050;DHT22;9657;45.940;12.840;2022-11-25T08:59:00;13.10;69.70
19050;DHT22;9657;45.940;12.840;2022-11-25T09:01:29;13.10;69.80
19050;DHT22;9657;45.940;12.840;2022-11-25T09:03:57;13.10;69.90
19050;DHT22;9657;45.940;12.840;2022-11-25T09:06:26;13.10;69.90
19050;DHT22;9657;45.940;12.840;2022-11-25T09:08:54;13.10;69.90
19050;DHT22;9657;45.940;12.840;2022-11-25T09:11:23;13.10;69.80
19050;DHT22;9657;45.940;12.840;2022-11-25T09:13:50;13.10;69.90
19050;DHT22;9657;45.940;12.840;2022-11-25T09:16:17;13.10;69.90
19050;DHT22;9657;45.940;12.840;2022-11-25T09:18:46;13.10;69.80
19050;DHT22;9657;45.940;12.840;2022-11-25T09:21:16;13.10;69.90
19050;DHT22;9657;45.940;12.840;2022-11-25T09:23:43;13.10;69.90
19050;DHT22;9657;45.940;12.840;2022-11-25T09:26:22;13.10;69.90
19050;DHT22;9657;45.940;12.840;2022-11-25T09:28:49;13.10;69.90
19050;DHT22;9657;45.940;12.840;2022-11-25T09:31:16;13.10;69.90
19050;DHT22;9657;45.940;12.840;2022-11-25T09:33:45;13.10;69.90
19050;DHT22;9657;45.940;12.840;2022-11-25T09:36:13;13.10;69.80
19050;DHT22;9657;45.940;12.840;2022-11-25T09:38:41;13.10;69.90
19050;DHT22;9657;45.940;12.840;2022-11-25T09:41:22;13.10;69.90
19050;DHT22;9657;45.940;12.840;2022-11-25T09:44:13;13.10;69.90
19050;DHT22;9657;45.940;12.840;2022-11-25T09:47:04;13.10;69.90
19050;DHT22;9657;45.940;12.840;2022-11-25T09:49:49;13.10;69.90
19050;DHT22;9657;45.940;12.840;2022-11-25T09:52:25;13.10;69.90
19050;DHT22;9657;45.940;12.840;2022-11-25T09:55:03;13.10;69.90
19050;DHT22;9657;45.940;12.840;2022-11-25T09:57:43;13.10;69.90
19050;DHT22;9657;45.940;12.840;2022-11-25T10:00:16;13.10;69.80
19050;DHT22;9657;45.940;12.840;2022-11-25T10:02:50;13.10;69.90
19050;DHT22;9657;45.940;12.840;2022-11-25T10:05:25;13.10;70.00
19050;DHT22;9657;45.940;12.840;2022-11-25T10:07:56;13.10;69.90
19050;DHT22;9657;45.940;12.840;2022-11-25T10:10:27;13.10;69.90
19050;DHT22;9657;45.940;12.840;2022-11-25T10:12:57;13.10;69.80
19050;DHT22;9657;45.940;12.840;2022-11-25T10:15:28;13.10;70.00
19050;DHT22;9657;45.940;12.840;2022-11-25T10:18:00;13.10;69.90
19050;DHT22;9657;45.940;12.840;2022-11-25T10:20:33;13.10;69.90
19050;DHT22;9657;45.940;12.840;2022-11-25T10:23:03;13.10;69.90
19050;DHT22;9657;45.940;12.840;2022-11-25T10:25:36;13.10;70.00
19050;DHT22;9657;45.940;12.840;2022-11-25T10:28:15;13.10;69.80
19050;DHT22;9657;45.940;12.840;2022-11-25T10:30:46;13.10;69.90
19050;DHT22;9657;45.940;12.840;2022-11-25T10:33:17;13.10;69.90
19050;DHT22;9657;45.940;12.840;2022-11-25T10:35:50;13.10;69.90
19050;DHT22;9657;45.940;12.840;2022-11-25T10:38:22;13.10;69.90
19050;DHT22;9657;45.940;12.840;2022-11-25T10:40:51;13.10;69.90
19050;DHT22;9657;45.940;12.840;2022-11-25T10:43:20;13.10;69.90
19050;DHT22;9657;45.940;12.840;2022-11-25T10:45:50;13.10;69.90
19050;DHT22;9657;45.940;12.840;2022-11-25T10:48:51;13.10;69.80
19050;DHT22;9657;45.940;12.840;2022-11-25T10:51:34;13.20;70.00
19050;DHT22;9657;45.940;12.840;2022-11-25T10:54:18;13.10;69.90
19050;DHT22;9657;45.940;12.840;2022-11-25T10:56:50;13.20;70.00
19050;DHT22;9657;45.940;12.840;2022-11-25T10:59:23;13.20;70.00
19050;DHT22;9657;45.940;12.840;2022-11-25T11:01:51;13.10;69.90
19050;DHT22;9657;45.940;12.840;2022-11-25T11:04:19;13.20;70.00
19050;DHT22;9657;45.940;12.840;2022-11-25T11:06:48;13.20;70.00
19050;DHT22;9657;45.940;12.840;2022-11-25T11:09:39;13.20;70.00
19050;DHT22;9657;45.940;12.840;2022-11-25T11:12:13;13.20;70.00
19050;DHT22;9657;45.940;12.840;2022-11-25T11:14:41;13.20;70.00
19050;DHT22;9657;45.940;12.840;2022-11-25T11:17:27;13.20;70.00
19050;DHT22;9657;45.940;12.840;2022-11-25T11:20:13;13.20;70.00
19050;DHT22;9657;45.940;12.840;2022-11-25T11:22:48;13.10;70.00
19050;DHT22;9657;45.940;12.840;2022-11-25T11:25:26;13.20;70.00
19050;DHT22;9657;45.940;12.840;2022-11-25T11:27:54;13.20;70.10
19050;DHT22;9657;45.940;12.840;2022-11-25T11:30:23;13.20;70.00
19050;DHT22;9657;45.940;12.840;2022-11-25T11:32:57;13.20;70.00
19050;DHT22;9657;45.940;12.840;2022-11-25T11:35:29;13.20;70.00
19050;DHT22;9657;45.940;12.840;2022-11-25T11:38:08;13.20;70.00
19050;DHT22;9657;45.940;12.840;2022-11-25T11:40:38;13.20;70.00
19050;DHT22;9657;45.940;12.840;2022-11-25T11:43:25;13.20;70.00
19050;DHT22;9657;45.940;12.840;2022-11-25T11:46:02;13.20;70.00
19050;DHT22;9657;45.940;12.840;2022-11-25T11:48:38;13.20;70.00
19050;DHT22;9657;45.940;12.840;2022-11-25T11:51:16;13.20;70.00
19050;DHT22;9657;45.940;12.840;2022-11-25T11:53:53;13.20;69.90
19050;DHT22;9657;45.940;12.840;2022-11-25T11:56:30;13.20;70.80
19050;DHT22;9657;45.940;12.840;2022-11-25T11:59:10;13.20;70.00
19050;DHT22;9657;45.940;12.840;2022-11-25T12:01:50;13.20;70.00
19050;DHT22;9657;45.940;12.840;2022-11-25T12:04:25;13.20;70.00
19050;DHT22;9657;45.940;12.840;2022-11-25T12:07:01;13.20;70.00
19050;DHT22;9657;45.940;12.840;2022-11-25T12:09:32;13.20;70.00
19050;DHT22;9657;45.940;12.840;2022-11-25T12:12:05;13.20;70.00
19050;DHT22;9657;45.940;12.840;2022-11-25T12:14:42;13.20;70.00
19050;DHT22;9657;45.940;12.840;2022-11-25T12:17:16;13.20;70.00
19050;DHT22;9657;45.940;12.840;2022-11-25T12:19:51;13.20;69.90
19050;DHT22;9657;45.940;12.840;2022-11-25T12:22:24;13.20;69.90
19050;DHT22;9657;45.940;12.840;2022-11-25T12:25:02;13.20;70.00
19050;DHT22;9657;45.940;12.840;2022-11-25T12:27:33;13.20;69.90
19050;DHT22;9657;45.940;12.840;2022-11-25T12:30:05;13.20;70.00
19050;DHT22;9657;45.940;12.840;2022-11-25T12:32:55;13.20;70.00
19050;DHT22;9657;45.940;12.840;2022-11-25T12:35:42;13.20;69.90
19050;DHT22;9657;45.940;12.840;2022-11-25T12:38:22;13.20;69.90
19050;DHT22;9657;45.940;12.840;2022-11-25T12:40:58;13.20;69.90
19050;DHT22;9657;45.940;12.840;2022-11-25T12:43:33;13.20;70.00
19050;DHT22;9657;45.940;12.840;2022-11-25T12:46:15;13.20;69.90
19050;DHT22;9657;45.940;12.840;2022-11-25T12:48:44;13.20;69.90
19050;DHT22;9657;45.940;12.840;2022-11-25T12:51:23;13.20;69.90
19050;DHT22;9657;45.940;12.840;2022-11-25T12:54:02;13.20;69.90
19050;DHT22;9657;45.940;12.840;2022-11-25T12:56:46;13.20;69.90
19050;DHT22;9657;45.940;12.840;2022-11-25T12:59:36;13.20;69.90
19050;DHT22;9657;45.940;12.840;2022-11-25T13:02:28;13.20;69.90
19050;DHT22;9657;45.940;12.840;2022-11-25T13:05:32;13.20;69.90
19050;DHT22;9657;45.940;12.840;2022-11-25T13:08:08;13.20;69.90
19050;DHT22;9657;45.940;12.840;2022-11-25T13:10:52;13.20;69.90
19050;DHT22;9657;45.940;12.840;2022-11-25T13:13:32;13.20;69.90
19050;DHT22;9657;45.940;12.840;2022-11-25T13:16:05;13.20;69.90
19050;DHT22;9657;45.940;12.840;2022-11-25T13:18:37;13.20;69.90
19050;DHT22;9657;45.940;12.840;2022-11-25T13:21:07;13.20;69.90
19050;DHT22;9657;45.940;12.840;2022-11-25T13:23:45;13.20;69.90
19050;DHT22;9657;45.940;12.840;2022-11-25T13:32:38;13.20;69.90
19050;DHT22;9657;45.940;12.840;2022-11-25T13:35:34;13.20;69.90
19050;DHT22;9657;45.940;12.840;2022-11-25T13:40:55;13.20;69.90
19050;DHT22;9657;45.940;12.840;2022-11-25T13:43:22;13.20;69.90
19050;DHT22;9657;45.940;12.840;2022-11-25T13:45:50;13.20;69.90
19050;DHT22;9657;45.940;12.840;2022-11-25T13:48:20;13.30;70.00
19050;DHT22;9657;45.940;12.840;2022-11-25T13:50:49;13.20;69.90
19050;DHT22;9657;45.940;12.840;2022-11-25T13:53:21;13.30;70.00
19050;DHT22;9657;45.940;12.840;2022-11-25T13:55:50;13.30;70.10
19050;DHT22;9657;45.940;12.840;2022-11-25T13:58:22;13.30;70.00
19050;DHT22;9657;45.940;12.840;2022-11-25T14:01:18;13.20;70.00
19050;DHT22;9657;45.940;12.840;2022-11-25T14:03:53;13.30;70.10
19050;DHT22;9657;45.940;12.840;2022-11-25T14:06:40;13.30;70.00
19050;DHT22;9657;45.940;12.840;2022-11-25T14:09:21;13.30;70.10
19050;DHT22;9657;45.940;12.840;2022-11-25T14:12:04;13.30;70.10
19050;DHT22;9657;45.940;12.840;2022-11-25T14:14:57;13.30;70.10
19050;DHT22;9657;45.940;12.840;2022-11-25T14:17:42;13.30;70.10
19050;DHT22;9657;45.940;12.840;2022-11-25T14:20:29;13.30;70.10
19050;DHT22;9657;45.940;12.840;2022-11-25T14:23:32;13.30;70.10
19050;DHT22;9657;45.940;12.840;2022-11-25T14:26:08;13.30;70.10
19050;DHT22;9657;45.940;12.840;2022-11-25T14:28:42;13.20;70.10
19050;DHT22;9657;45.940;12.840;2022-11-25T14:31:14;13.30;70.10
19050;DHT22;9657;45.940;12.840;2022-11-25T14:33:49;13.30;70.10
19050;DHT22;9657;45.940;12.840;2022-11-25T14:36:21;13.30;70.10
19050;DHT22;9657;45.940;12.840;2022-11-25T14:38:54;13.30;70.10
19050;DHT22;9657;45.940;12.840;2022-11-25T14:41:29;13.30;70.20
19050;DHT22;9657;45.940;12.840;2022-11-25T14:44:03;13.30;70.20
19050;DHT22;9657;45.940;12.840;2022-11-25T14:46:31;13.20;70.10
19050;DHT22;9657;45.940;12.840;2022-11-25T14:48:59;13.30;70.20
19050;DHT22;9657;45.940;12.840;2022-11-25T14:51:34;13.30;70.20
19050;DHT22;9657;45.940;12.840;2022-11-25T14:54:02;13.20;70.10
19050;DHT22;9657;45.940;12.840;2022-11-25T14:56:34;13.30;70.20
19050;DHT22;9657;45.940;12.840;2022-11-25T14:59:02;13.30;70.20
19050;DHT22;9657;45.940;12.840;2022-11-25T15:01:31;13.30;70.10
19050;DHT22;9657;45.940;12.840;2022-11-25T15:04:03;13.30;70.30
19050;DHT22;9657;45.940;12.840;2022-11-25T15:06:34;13.30;70.40
19050;DHT22;9657;45.940;12.840;2022-11-25T15:09:10;13.30;70.60
19050;DHT22;9657;45.940;12.840;2022-11-25T15:11:43;13.30;70.60
19050;DHT22;9657;45.940;12.840;2022-11-25T15:14:14;13.30;70.60
19050;DHT22;9657;45.940;12.840;2022-11-25T15:16:44;13.30;70.70
19050;DHT22;9657;45.940;12.840;2022-11-25T15:19:16;13.30;70.80
19050;DHT22;9657;45.940;12.840;2022-11-25T15:21:45;13.30;70.70
19050;DHT22;9657;45.940;12.840;2022-11-25T15:24:22;13.30;70.70
19050;DHT22;9657;45.940;12.840;2022-11-25T15:26:51;13.30;70.80
19050;DHT22;9657;45.940;12.840;2022-11-25T15:29:18;13.30;70.60
19050;DHT22;9657;45.940;12.840;2022-11-25T15:31:47;13.30;70.60
19050;DHT22;9657;45.940;12.840;2022-11-25T15:34:15;13.30;70.60
19050;DHT22;9657;45.940;12.840;2022-11-25T15:36:46;13.30;70.60
19050;DHT22;9657;45.940;12.840;2022-11-25T15:39:15;13.30;70.60
19050;DHT22;9657;45.940;12.840;2022-11-25T15:41:44;13.30;70.60
19050;DHT22;9657;45.940;12.840;2022-11-25T15:44:20;13.30;70.50
19050;DHT22;9657;45.940;12.840;2022-11-25T15:46:52;13.30;70.60
19050;DHT22;9657;45.940;12.840;2022-11-25T15:49:21;13.30;70.50
19050;DHT22;9657;45.940;12.840;2022-11-25T15:51:52;13.30;70.50
19050;DHT22;9657;45.940;12.840;2022-11-25T15:54:23;13.30;70.50
19050;DHT22;9657;45.940;12.840;2022-11-25T15:56:54;13.30;70.50
19050;DHT22;9657;45.940;12.840;2022-11-25T15:59:45;13.30;70.50
19050;DHT22;9657;45.940;12.840;2022-11-25T16:02:35;13.30;70.60
19050;DHT22;9657;45.940;12.840;2022-11-25T16:05:15;13.30;70.60
19050;DHT22;9657;45.940;12.840;2022-11-25T16:07:56;13.30;70.50